Terminal Aerodrome Forecast
Issued by NWS Portland, OR

Home | Current Version | Previous Version | Text Only | Print | Product List | Glossary On
Versions: 1 2 3 4 5 6 7 8 9 10 11 12 13 14 15
000
FTUS46 KPQR 241130 AAA
TAFEUG
TAF AMD
KEUG 241130Z 2412/2506 VRB05KT P6SM SKC
     FM241700 01008KT P6SM SKC
     FM242100 01013G20KT P6SM SKC
     FM250300 01010KT P6SM SKC
     FM250400 01006KT P6SM SKC=

USA.gov is the U.S. government's official web portal to all federal, state and local government web resources and services.